Terminal Aerodrome Forecast
Issued by NWS Austin/San Antonio, TX

Home | Current Version | Previous Version | Text Only | Print | Product List | Glossary On
Versions: 1 2 3 4 5 6 7 8 9 10 11 12 13 14 15
000
FTUS44 KEWX 281121
TAFDRT
TAF
KDRT 281121Z 2812/2912 11015KT P6SM BKN020
     FM281600 14005KT P6SM SKC
     FM290100 12012KT P6SM SKC
     FM290900 11012KT P6SM BKN012=

USA.gov is the U.S. government's official web portal to all federal, state and local government web resources and services.